首页
METAR-TAF:

METAR-TAF

机场 :

Isbell Field

Fort Payne, 阿拉巴马州, 美国

纬度: 34-28-25N, 经度: 085-43-17W, 海拔: 267米

当前天气观测

该预报发布于16分钟前的06:15 UTC
静风
温度 19°C
湿度 94%
气压 1019 hPa
能見度: 16.1公里
天空无云

METAR: K4A9 270615Z AUTO 00000KT 10SM CLR 19/18 A3009 RMK AO2 T01870181

时间: 01:31 (06:31 UTC)


TAF: 丢失

超过4000个机场的气象观测和天气预报(METAR&TAF报告)。

可查询的气象台以黄色和红色小点在地图上表示。

将鼠标移到小点上方,可查看气象台名称。

然后点击查看天气观测和预报。

如需切换地图:点击带黑十字的绿色按钮放大地图;点击带横线的绿色按钮缩小地图;或者点击绿色箭头查看邻近地区的地图。


METAR-TAF: